sensor_id;sensor_type;location;lat;lon;timestamp;P1;durP1;ratioP1;P2;durP2;ratioP2
35330;SDS011;21441;52.190;20.910;2022-09-12T00:01:16;4.68;;;2.92;;
35330;SDS011;21441;52.190;20.910;2022-09-12T00:03:45;4.50;;;2.80;;
35330;SDS011;21441;52.190;20.910;2022-09-12T00:06:15;4.55;;;2.90;;
35330;SDS011;21441;52.190;20.910;2022-09-12T00:08:45;6.03;;;3.10;;
35330;SDS011;21441;52.190;20.910;2022-09-12T00:11:12;4.28;;;3.38;;
35330;SDS011;21441;52.190;20.910;2022-09-12T00:13:39;5.88;;;3.42;;
35330;SDS011;21441;52.190;20.910;2022-09-12T00:16:13;3.83;;;3.28;;
35330;SDS011;21441;52.190;20.910;2022-09-12T00:18:42;4.47;;;3.03;;
35330;SDS011;21441;52.190;20.910;2022-09-12T00:21:11;5.03;;;3.63;;
35330;SDS011;21441;52.190;20.910;2022-09-12T00:23:38;7.57;;;3.60;;
35330;SDS011;21441;52.190;20.910;2022-09-12T00:26:05;5.57;;;3.67;;
35330;SDS011;21441;52.190;20.910;2022-09-12T00:28:32;7.18;;;3.88;;
35330;SDS011;21441;52.190;20.910;2022-09-12T00:31:02;6.80;;;3.45;;
35330;SDS011;21441;52.190;20.910;2022-09-12T00:33:32;6.03;;;3.72;;
35330;SDS011;21441;52.190;20.910;2022-09-12T00:36:02;7.57;;;3.33;;
35330;SDS011;21441;52.190;20.910;2022-09-12T00:38:31;5.90;;;3.65;;
35330;SDS011;21441;52.190;20.910;2022-09-12T00:40:59;6.25;;;3.42;;
35330;SDS011;21441;52.190;20.910;2022-09-12T00:43:33;4.90;;;2.80;;
35330;SDS011;21441;52.190;20.910;2022-09-12T00:46:05;7.78;;;3.15;;
35330;SDS011;21441;52.190;20.910;2022-09-12T00:48:43;6.13;;;2.72;;
35330;SDS011;21441;52.190;20.910;2022-09-12T00:51:14;3.97;;;2.72;;
35330;SDS011;21441;52.190;20.910;2022-09-12T00:53:42;3.72;;;3.22;;
35330;SDS011;21441;52.190;20.910;2022-09-12T00:56:12;4.28;;;3.00;;
35330;SDS011;21441;52.190;20.910;2022-09-12T00:58:42;3.50;;;2.60;;
35330;SDS011;21441;52.190;20.910;2022-09-12T01:01:15;6.50;;;3.40;;
35330;SDS011;21441;52.190;20.910;2022-09-12T01:03:44;8.50;;;3.63;;
35330;SDS011;21441;52.190;20.910;2022-09-12T01:06:14;6.13;;;3.22;;
35330;SDS011;21441;52.190;20.910;2022-09-12T01:08:43;4.47;;;3.10;;
35330;SDS011;21441;52.190;20.910;2022-09-12T01:11:13;4.00;;;3.05;;
35330;SDS011;21441;52.190;20.910;2022-09-12T01:13:41;6.95;;;3.25;;
35330;SDS011;21441;52.190;20.910;2022-09-12T01:16:09;5.45;;;3.08;;
35330;SDS011;21441;52.190;20.910;2022-09-12T01:18:40;4.25;;;3.05;;
35330;SDS011;21441;52.190;20.910;2022-09-12T01:21:19;3.20;;;2.90;;
35330;SDS011;21441;52.190;20.910;2022-09-12T01:24:05;4.30;;;3.20;;
35330;SDS011;21441;52.190;20.910;2022-09-12T01:32:48;4.97;;;3.25;;
35330;SDS011;21441;52.190;20.910;2022-09-12T01:35:23;7.90;;;3.70;;
35330;SDS011;21441;52.190;20.910;2022-09-12T01:37:59;6.88;;;3.83;;
35330;SDS011;21441;52.190;20.910;2022-09-12T01:40:38;6.68;;;3.47;;
35330;SDS011;21441;52.190;20.910;2022-09-12T01:43:14;4.63;;;3.40;;
35330;SDS011;21441;52.190;20.910;2022-09-12T01:45:51;7.32;;;3.55;;
35330;SDS011;21441;52.190;20.910;2022-09-12T01:48:25;5.18;;;3.88;;
35330;SDS011;21441;52.190;20.910;2022-09-12T01:50:56;5.25;;;3.28;;
35330;SDS011;21441;52.190;20.910;2022-09-12T01:53:28;4.55;;;3.80;;
35330;SDS011;21441;52.190;20.910;2022-09-12T01:56:01;7.57;;;3.53;;
35330;SDS011;21441;52.190;20.910;2022-09-12T01:58:32;6.43;;;3.67;;
35330;SDS011;21441;52.190;20.910;2022-09-12T02:01:05;6.30;;;3.78;;
35330;SDS011;21441;52.190;20.910;2022-09-12T02:03:38;8.00;;;4.00;;
35330;SDS011;21441;52.190;20.910;2022-09-12T02:06:10;5.03;;;3.92;;
35330;SDS011;21441;52.190;20.910;2022-09-12T02:08:43;7.95;;;3.88;;
35330;SDS011;21441;52.190;20.910;2022-09-12T02:11:13;8.77;;;3.85;;
35330;SDS011;21441;52.190;20.910;2022-09-12T02:13:41;8.18;;;3.85;;
35330;SDS011;21441;52.190;20.910;2022-09-12T02:16:10;5.57;;;4.07;;
35330;SDS011;21441;52.190;20.910;2022-09-12T02:18:43;6.35;;;4.38;;
35330;SDS011;21441;52.190;20.910;2022-09-12T02:21:12;5.63;;;3.65;;
35330;SDS011;21441;52.190;20.910;2022-09-12T02:23:40;6.25;;;3.88;;
35330;SDS011;21441;52.190;20.910;2022-09-12T02:26:20;4.70;;;3.75;;
35330;SDS011;21441;52.190;20.910;2022-09-12T02:28:52;6.00;;;3.83;;
35330;SDS011;21441;52.190;20.910;2022-09-12T02:31:21;8.52;;;3.60;;
35330;SDS011;21441;52.190;20.910;2022-09-12T02:33:56;6.32;;;4.32;;
35330;SDS011;21441;52.190;20.910;2022-09-12T02:36:35;7.47;;;3.95;;
35330;SDS011;21441;52.190;20.910;2022-09-12T02:39:08;4.80;;;3.47;;
35330;SDS011;21441;52.190;20.910;2022-09-12T02:41:35;7.07;;;4.25;;
35330;SDS011;21441;52.190;20.910;2022-09-12T02:44:02;5.03;;;3.97;;
35330;SDS011;21441;52.190;20.910;2022-09-12T02:46:32;5.53;;;3.85;;
35330;SDS011;21441;52.190;20.910;2022-09-12T02:49:05;4.78;;;4.13;;
35330;SDS011;21441;52.190;20.910;2022-09-12T02:51:32;9.27;;;5.30;;
35330;SDS011;21441;52.190;20.910;2022-09-12T02:53:59;5.70;;;4.03;;
35330;SDS011;21441;52.190;20.910;2022-09-12T02:56:28;6.72;;;4.65;;
35330;SDS011;21441;52.190;20.910;2022-09-12T02:58:57;7.70;;;4.28;;
35330;SDS011;21441;52.190;20.910;2022-09-12T03:01:29;9.52;;;5.57;;
35330;SDS011;21441;52.190;20.910;2022-09-12T03:07:05;6.22;;;4.47;;
35330;SDS011;21441;52.190;20.910;2022-09-12T03:09:40;5.63;;;4.65;;
35330;SDS011;21441;52.190;20.910;2022-09-12T03:12:19;5.30;;;4.07;;
35330;SDS011;21441;52.190;20.910;2022-09-12T03:14:58;7.30;;;5.10;;
35330;SDS011;21441;52.190;20.910;2022-09-12T03:17:39;6.88;;;4.97;;
35330;SDS011;21441;52.190;20.910;2022-09-12T03:20:19;6.43;;;4.65;;
35330;SDS011;21441;52.190;20.910;2022-09-12T03:22:57;5.70;;;4.20;;
35330;SDS011;21441;52.190;20.910;2022-09-12T03:25:27;6.50;;;4.88;;
35330;SDS011;21441;52.190;20.910;2022-09-12T03:28:00;10.90;;;6.03;;
35330;SDS011;21441;52.190;20.910;2022-09-12T03:30:35;6.45;;;4.18;;
35330;SDS011;21441;52.190;20.910;2022-09-12T03:33:03;6.38;;;4.78;;
35330;SDS011;21441;52.190;20.910;2022-09-12T03:35:31;7.25;;;4.55;;
35330;SDS011;21441;52.190;20.910;2022-09-12T03:37:58;5.88;;;4.45;;
35330;SDS011;21441;52.190;20.910;2022-09-12T03:40:25;7.95;;;4.95;;
35330;SDS011;21441;52.190;20.910;2022-09-12T03:42:52;7.90;;;5.13;;
35330;SDS011;21441;52.190;20.910;2022-09-12T03:45:19;5.68;;;4.85;;
35330;SDS011;21441;52.190;20.910;2022-09-12T03:47:46;5.40;;;4.63;;
35330;SDS011;21441;52.190;20.910;2022-09-12T03:50:13;9.13;;;4.50;;
35330;SDS011;21441;52.190;20.910;2022-09-12T03:52:41;7.78;;;5.05;;
35330;SDS011;21441;52.190;20.910;2022-09-12T03:55:08;6.57;;;4.70;;
35330;SDS011;21441;52.190;20.910;2022-09-12T03:57:35;6.75;;;3.88;;
35330;SDS011;21441;52.190;20.910;2022-09-12T04:00:02;7.88;;;4.85;;
35330;SDS011;21441;52.190;20.910;2022-09-12T04:02:30;10.23;;;4.95;;
35330;SDS011;21441;52.190;20.910;2022-09-12T04:04:57;9.90;;;5.10;;
35330;SDS011;21441;52.190;20.910;2022-09-12T04:07:24;7.22;;;4.80;;
35330;SDS011;21441;52.190;20.910;2022-09-12T04:09:52;7.07;;;4.80;;
35330;SDS011;21441;52.190;20.910;2022-09-12T04:12:20;6.55;;;5.30;;
35330;SDS011;21441;52.190;20.910;2022-09-12T04:14:47;6.72;;;5.10;;
35330;SDS011;21441;52.190;20.910;2022-09-12T04:17:14;5.10;;;4.53;;
35330;SDS011;21441;52.190;20.910;2022-09-12T04:19:41;7.53;;;4.55;;
35330;SDS011;21441;52.190;20.910;2022-09-12T04:22:08;9.52;;;4.90;;
35330;SDS011;21441;52.190;20.910;2022-09-12T04:24:35;7.55;;;5.40;;
35330;SDS011;21441;52.190;20.910;2022-09-12T04:27:03;6.95;;;5.57;;
35330;SDS011;21441;52.190;20.910;2022-09-12T04:29:30;6.18;;;4.82;;
35330;SDS011;21441;52.190;20.910;2022-09-12T04:31:57;9.05;;;5.28;;
35330;SDS011;21441;52.190;20.910;2022-09-12T04:34:24;10.88;;;5.95;;
35330;SDS011;21441;52.190;20.910;2022-09-12T04:36:51;6.90;;;5.32;;
35330;SDS011;21441;52.190;20.910;2022-09-12T04:39:18;9.73;;;5.72;;
35330;SDS011;21441;52.190;20.910;2022-09-12T04:41:45;7.80;;;5.20;;
35330;SDS011;21441;52.190;20.910;2022-09-12T04:44:13;9.07;;;5.50;;
35330;SDS011;21441;52.190;20.910;2022-09-12T04:46:42;10.20;;;6.45;;
35330;SDS011;21441;52.190;20.910;2022-09-12T04:49:11;8.60;;;5.03;;
35330;SDS011;21441;52.190;20.910;2022-09-12T04:51:41;9.35;;;5.55;;
35330;SDS011;21441;52.190;20.910;2022-09-12T04:54:10;6.70;;;5.13;;
35330;SDS011;21441;52.190;20.910;2022-09-12T04:56:39;6.28;;;4.60;;
35330;SDS011;21441;52.190;20.910;2022-09-12T04:59:09;6.72;;;5.28;;
35330;SDS011;21441;52.190;20.910;2022-09-12T05:01:38;7.60;;;4.85;;
35330;SDS011;21441;52.190;20.910;2022-09-12T05:04:05;8.77;;;5.22;;
35330;SDS011;21441;52.190;20.910;2022-09-12T05:06:33;7.85;;;5.60;;
35330;SDS011;21441;52.190;20.910;2022-09-12T05:09:03;7.83;;;5.83;;
35330;SDS011;21441;52.190;20.910;2022-09-12T05:11:32;9.80;;;5.35;;
35330;SDS011;21441;52.190;20.910;2022-09-12T05:14:01;7.97;;;6.15;;
35330;SDS011;21441;52.190;20.910;2022-09-12T05:16:28;6.75;;;5.50;;
35330;SDS011;21441;52.190;20.910;2022-09-12T05:18:57;11.20;;;5.13;;
35330;SDS011;21441;52.190;20.910;2022-09-12T05:21:25;8.40;;;5.15;;
35330;SDS011;21441;52.190;20.910;2022-09-12T05:23:53;8.85;;;5.30;;
35330;SDS011;21441;52.190;20.910;2022-09-12T05:26:21;6.53;;;4.90;;
35330;SDS011;21441;52.190;20.910;2022-09-12T05:28:49;8.50;;;5.20;;
35330;SDS011;21441;52.190;20.910;2022-09-12T05:31:17;8.60;;;5.13;;
35330;SDS011;21441;52.190;20.910;2022-09-12T05:33:46;7.75;;;5.63;;
35330;SDS011;21441;52.190;20.910;2022-09-12T05:36:16;8.52;;;5.75;;
35330;SDS011;21441;52.190;20.910;2022-09-12T05:38:44;6.72;;;4.47;;
35330;SDS011;21441;52.190;20.910;2022-09-12T05:41:12;7.55;;;4.70;;
35330;SDS011;21441;52.190;20.910;2022-09-12T05:43:41;7.47;;;4.55;;
35330;SDS011;21441;52.190;20.910;2022-09-12T05:46:08;7.32;;;4.97;;
35330;SDS011;21441;52.190;20.910;2022-09-12T05:48:37;5.68;;;4.78;;
35330;SDS011;21441;52.190;20.910;2022-09-12T05:51:06;7.07;;;4.88;;
35330;SDS011;21441;52.190;20.910;2022-09-12T05:53:36;7.20;;;4.35;;
35330;SDS011;21441;52.190;20.910;2022-09-12T05:56:04;6.00;;;4.68;;
35330;SDS011;21441;52.190;20.910;2022-09-12T05:58:33;8.50;;;5.07;;
35330;SDS011;21441;52.190;20.910;2022-09-12T06:01:02;8.32;;;5.15;;
35330;SDS011;21441;52.190;20.910;2022-09-12T06:03:30;11.77;;;5.00;;
35330;SDS011;21441;52.190;20.910;2022-09-12T06:06:00;6.78;;;4.80;;
35330;SDS011;21441;52.190;20.910;2022-09-12T06:08:28;6.30;;;5.13;;
35330;SDS011;21441;52.190;20.910;2022-09-12T06:10:58;7.97;;;4.95;;
35330;SDS011;21441;52.190;20.910;2022-09-12T06:13:26;8.45;;;5.50;;
35330;SDS011;21441;52.190;20.910;2022-09-12T06:15:53;8.50;;;5.60;;
35330;SDS011;21441;52.190;20.910;2022-09-12T06:18:20;10.25;;;5.07;;
35330;SDS011;21441;52.190;20.910;2022-09-12T06:20:46;8.35;;;5.22;;
35330;SDS011;21441;52.190;20.910;2022-09-12T06:23:13;6.80;;;5.20;;
35330;SDS011;21441;52.190;20.910;2022-09-12T06:25:45;7.90;;;4.63;;
35330;SDS011;21441;52.190;20.910;2022-09-12T06:28:14;8.38;;;5.38;;
35330;SDS011;21441;52.190;20.910;2022-09-12T06:30:40;7.60;;;4.57;;
35330;SDS011;21441;52.190;20.910;2022-09-12T06:33:07;10.95;;;6.00;;
35330;SDS011;21441;52.190;20.910;2022-09-12T06:35:35;10.02;;;5.50;;
35330;SDS011;21441;52.190;20.910;2022-09-12T06:38:02;8.07;;;5.10;;
35330;SDS011;21441;52.190;20.910;2022-09-12T06:40:29;7.38;;;4.70;;
35330;SDS011;21441;52.190;20.910;2022-09-12T06:42:57;6.18;;;4.38;;
35330;SDS011;21441;52.190;20.910;2022-09-12T06:45:25;7.10;;;4.80;;
35330;SDS011;21441;52.190;20.910;2022-09-12T06:47:53;10.23;;;5.32;;
35330;SDS011;21441;52.190;20.910;2022-09-12T06:50:20;11.50;;;4.75;;
35330;SDS011;21441;52.190;20.910;2022-09-12T06:52:48;9.70;;;5.47;;
35330;SDS011;21441;52.190;20.910;2022-09-12T06:55:15;5.85;;;4.50;;
35330;SDS011;21441;52.190;20.910;2022-09-12T06:57:42;7.45;;;4.82;;
35330;SDS011;21441;52.190;20.910;2022-09-12T07:00:10;13.50;;;5.22;;
35330;SDS011;21441;52.190;20.910;2022-09-12T07:02:39;7.63;;;4.75;;
35330;SDS011;21441;52.190;20.910;2022-09-12T07:05:06;9.50;;;5.18;;
35330;SDS011;21441;52.190;20.910;2022-09-12T07:07:34;7.20;;;5.22;;
35330;SDS011;21441;52.190;20.910;2022-09-12T07:10:02;6.97;;;4.72;;
35330;SDS011;21441;52.190;20.910;2022-09-12T07:12:32;6.82;;;4.70;;
35330;SDS011;21441;52.190;20.910;2022-09-12T07:14:58;7.40;;;5.13;;
35330;SDS011;21441;52.190;20.910;2022-09-12T07:17:25;12.00;;;5.72;;
35330;SDS011;21441;52.190;20.910;2022-09-12T07:19:54;6.32;;;5.13;;
35330;SDS011;21441;52.190;20.910;2022-09-12T07:22:21;8.65;;;5.13;;
35330;SDS011;21441;52.190;20.910;2022-09-12T07:24:47;5.57;;;4.95;;
35330;SDS011;21441;52.190;20.910;2022-09-12T07:27:15;6.97;;;4.43;;
35330;SDS011;21441;52.190;20.910;2022-09-12T07:29:41;4.97;;;4.22;;
35330;SDS011;21441;52.190;20.910;2022-09-12T07:32:11;7.68;;;4.40;;
35330;SDS011;21441;52.190;20.910;2022-09-12T07:34:38;7.75;;;4.35;;
35330;SDS011;21441;52.190;20.910;2022-09-12T07:37:07;8.88;;;4.18;;
35330;SDS011;21441;52.190;20.910;2022-09-12T07:39:34;6.55;;;4.60;;
35330;SDS011;21441;52.190;20.910;2022-09-12T07:42:02;8.45;;;4.43;;
35330;SDS011;21441;52.190;20.910;2022-09-12T07:44:30;7.40;;;4.38;;
35330;SDS011;21441;52.190;20.910;2022-09-12T07:46:57;7.55;;;5.28;;
35330;SDS011;21441;52.190;20.910;2022-09-12T07:49:24;5.47;;;4.68;;
35330;SDS011;21441;52.190;20.910;2022-09-12T07:51:51;8.77;;;4.00;;
35330;SDS011;21441;52.190;20.910;2022-09-12T07:54:19;7.53;;;4.68;;
35330;SDS011;21441;52.190;20.910;2022-09-12T07:56:47;7.50;;;4.28;;
35330;SDS011;21441;52.190;20.910;2022-09-12T07:59:13;7.97;;;4.40;;
35330;SDS011;21441;52.190;20.910;2022-09-12T08:01:41;6.25;;;4.25;;
35330;SDS011;21441;52.190;20.910;2022-09-12T08:04:08;7.28;;;3.90;;
35330;SDS011;21441;52.190;20.910;2022-09-12T08:06:35;6.28;;;4.13;;
35330;SDS011;21441;52.190;20.910;2022-09-12T08:09:02;8.75;;;4.05;;
35330;SDS011;21441;52.190;20.910;2022-09-12T08:11:32;4.50;;;3.65;;
35330;SDS011;21441;52.190;20.910;2022-09-12T08:13:59;8.50;;;4.10;;
35330;SDS011;21441;52.190;20.910;2022-09-12T08:16:27;7.15;;;4.38;;
35330;SDS011;21441;52.190;20.910;2022-09-12T08:21:26;8.85;;;5.05;;
35330;SDS011;21441;52.190;20.910;2022-09-12T08:23:55;5.45;;;4.22;;
35330;SDS011;21441;52.190;20.910;2022-09-12T08:26:23;6.22;;;4.00;;
35330;SDS011;21441;52.190;20.910;2022-09-12T08:28:52;7.60;;;4.55;;
35330;SDS011;21441;52.190;20.910;2022-09-12T08:31:20;8.77;;;4.80;;
35330;SDS011;21441;52.190;20.910;2022-09-12T08:33:49;7.55;;;3.97;;
35330;SDS011;21441;52.190;20.910;2022-09-12T08:36:17;7.25;;;4.32;;
35330;SDS011;21441;52.190;20.910;2022-09-12T08:38:47;9.40;;;5.00;;
35330;SDS011;21441;52.190;20.910;2022-09-12T08:41:19;6.40;;;3.72;;
35330;SDS011;21441;52.190;20.910;2022-09-12T08:44:06;5.50;;;3.47;;
35330;SDS011;21441;52.190;20.910;2022-09-12T08:46:46;9.75;;;4.65;;
35330;SDS011;21441;52.190;20.910;2022-09-12T08:49:29;5.30;;;4.07;;
35330;SDS011;21441;52.190;20.910;2022-09-12T08:52:04;6.45;;;4.05;;
35330;SDS011;21441;52.190;20.910;2022-09-12T08:54:36;6.00;;;4.00;;
35330;SDS011;21441;52.190;20.910;2022-09-12T08:57:05;7.45;;;4.80;;
35330;SDS011;21441;52.190;20.910;2022-09-12T08:59:39;5.63;;;4.53;;
35330;SDS011;21441;52.190;20.910;2022-09-12T09:02:16;8.57;;;4.03;;
35330;SDS011;21441;52.190;20.910;2022-09-12T09:05:05;6.22;;;4.13;;
35330;SDS011;21441;52.190;20.910;2022-09-12T09:08:03;5.80;;;4.47;;
35330;SDS011;21441;52.190;20.910;2022-09-12T09:10:43;5.85;;;4.55;;
35330;SDS011;21441;52.190;20.910;2022-09-12T09:13:23;5.65;;;3.75;;
35330;SDS011;21441;52.190;20.910;2022-09-12T09:16:17;9.10;;;5.38;;
35330;SDS011;21441;52.190;20.910;2022-09-12T09:18:50;7.07;;;4.20;;
35330;SDS011;21441;52.190;20.910;2022-09-12T09:21:21;5.43;;;4.30;;
35330;SDS011;21441;52.190;20.910;2022-09-12T09:23:53;6.07;;;3.67;;
35330;SDS011;21441;52.190;20.910;2022-09-12T09:26:25;11.60;;;3.97;;
35330;SDS011;21441;52.190;20.910;2022-09-12T09:28:57;5.38;;;3.70;;
35330;SDS011;21441;52.190;20.910;2022-09-12T09:31:29;7.25;;;3.80;;
35330;SDS011;21441;52.190;20.910;2022-09-12T09:34:05;5.38;;;3.90;;
35330;SDS011;21441;52.190;20.910;2022-09-12T09:36:39;6.03;;;4.45;;
35330;SDS011;21441;52.190;20.910;2022-09-12T09:39:18;7.07;;;4.00;;
35330;SDS011;21441;52.190;20.910;2022-09-12T09:41:55;7.03;;;4.05;;
35330;SDS011;21441;52.190;20.910;2022-09-12T09:44:35;7.53;;;4.05;;
35330;SDS011;21441;52.190;20.910;2022-09-12T09:47:03;5.03;;;4.00;;
35330;SDS011;21441;52.190;20.910;2022-09-12T09:49:32;7.38;;;4.43;;
35330;SDS011;21441;52.190;20.910;2022-09-12T09:52:02;12.75;;;5.00;;
35330;SDS011;21441;52.190;20.910;2022-09-12T09:54:33;5.57;;;4.93;;
35330;SDS011;21441;52.190;20.910;2022-09-12T09:57:08;8.85;;;6.88;;
35330;SDS011;21441;52.190;20.910;2022-09-12T10:00:28;6.70;;;4.10;;
35330;SDS011;21441;52.190;20.910;2022-09-12T10:03:01;7.05;;;3.78;;
35330;SDS011;21441;52.190;20.910;2022-09-12T10:05:51;7.18;;;3.78;;
35330;SDS011;21441;52.190;20.910;2022-09-12T10:08:21;6.13;;;4.18;;
35330;SDS011;21441;52.190;20.910;2022-09-12T10:10:54;6.53;;;3.95;;
35330;SDS011;21441;52.190;20.910;2022-09-12T10:13:26;5.03;;;4.15;;
35330;SDS011;21441;52.190;20.910;2022-09-12T10:15:58;6.53;;;3.75;;
35330;SDS011;21441;52.190;20.910;2022-09-12T10:18:39;6.53;;;4.88;;
35330;SDS011;21441;52.190;20.910;2022-09-12T10:21:18;5.97;;;4.05;;
35330;SDS011;21441;52.190;20.910;2022-09-12T10:23:50;7.45;;;4.43;;
35330;SDS011;21441;52.190;20.910;2022-09-12T10:26:24;7.38;;;3.83;;
35330;SDS011;21441;52.190;20.910;2022-09-12T10:28:53;4.40;;;4.00;;
35330;SDS011;21441;52.190;20.910;2022-09-12T10:31:25;4.65;;;3.97;;
35330;SDS011;21441;52.190;20.910;2022-09-12T10:33:56;9.25;;;4.22;;
35330;SDS011;21441;52.190;20.910;2022-09-12T10:36:26;6.35;;;3.85;;
35330;SDS011;21441;52.190;20.910;2022-09-12T10:39:02;7.45;;;4.13;;
35330;SDS011;21441;52.190;20.910;2022-09-12T10:41:34;7.45;;;3.95;;
35330;SDS011;21441;52.190;20.910;2022-09-12T10:44:05;5.25;;;4.45;;
35330;SDS011;21441;52.190;20.910;2022-09-12T10:46:34;6.82;;;4.03;;
35330;SDS011;21441;52.190;20.910;2022-09-12T10:49:22;7.85;;;4.35;;
35330;SDS011;21441;52.190;20.910;2022-09-12T10:54:20;6.22;;;3.70;;
35330;SDS011;21441;52.190;20.910;2022-09-12T10:57:02;8.75;;;3.95;;
35330;SDS011;21441;52.190;20.910;2022-09-12T11:00:03;7.32;;;4.53;;
35330;SDS011;21441;52.190;20.910;2022-09-12T11:02:42;5.68;;;3.88;;
35330;SDS011;21441;52.190;20.910;2022-09-12T11:05:19;6.38;;;3.78;;
35330;SDS011;21441;52.190;20.910;2022-09-12T11:08:03;3.85;;;3.40;;
35330;SDS011;21441;52.190;20.910;2022-09-12T11:10:41;7.10;;;3.85;;
35330;SDS011;21441;52.190;20.910;2022-09-12T11:13:22;4.97;;;4.10;;
35330;SDS011;21441;52.190;20.910;2022-09-12T11:16:06;8.82;;;3.42;;
35330;SDS011;21441;52.190;20.910;2022-09-12T11:21:27;6.05;;;3.40;;
35330;SDS011;21441;52.190;20.910;2022-09-12T11:30:00;6.60;;;3.75;;
35330;SDS011;21441;52.190;20.910;2022-09-12T11:35:30;4.10;;;3.20;;
35330;SDS011;21441;52.190;20.910;2022-09-12T11:38:13;6.22;;;3.63;;
35330;SDS011;21441;52.190;20.910;2022-09-12T11:40:54;9.75;;;3.83;;
35330;SDS011;21441;52.190;20.910;2022-09-12T11:43:28;7.88;;;3.22;;
35330;SDS011;21441;52.190;20.910;2022-09-12T11:46:04;4.60;;;3.10;;
35330;SDS011;21441;52.190;20.910;2022-09-12T11:48:37;5.35;;;3.80;;
35330;SDS011;21441;52.190;20.910;2022-09-12T11:51:14;11.27;;;4.50;;
35330;SDS011;21441;52.190;20.910;2022-09-12T11:53:45;5.32;;;3.90;;
35330;SDS011;21441;52.190;20.910;2022-09-12T11:56:22;3.45;;;2.95;;
35330;SDS011;21441;52.190;20.910;2022-09-12T11:58:50;6.97;;;3.55;;
35330;SDS011;21441;52.190;20.910;2022-09-12T12:01:24;5.20;;;3.72;;
35330;SDS011;21441;52.190;20.910;2022-09-12T12:03:54;5.25;;;3.58;;
35330;SDS011;21441;52.190;20.910;2022-09-12T12:06:23;4.07;;;3.10;;
35330;SDS011;21441;52.190;20.910;2022-09-12T12:08:57;6.55;;;3.15;;
35330;SDS011;21441;52.190;20.910;2022-09-12T12:11:25;5.55;;;3.47;;
35330;SDS011;21441;52.190;20.910;2022-09-12T12:13:56;6.03;;;3.38;;
35330;SDS011;21441;52.190;20.910;2022-09-12T12:16:27;6.18;;;3.38;;
35330;SDS011;21441;52.190;20.910;2022-09-12T12:18:57;3.17;;;2.88;;
35330;SDS011;21441;52.190;20.910;2022-09-12T12:21:32;5.88;;;3.40;;
35330;SDS011;21441;52.190;20.910;2022-09-12T12:24:13;3.58;;;3.17;;
35330;SDS011;21441;52.190;20.910;2022-09-12T12:26:53;5.32;;;3.42;;
35330;SDS011;21441;52.190;20.910;2022-09-12T12:29:36;6.90;;;3.15;;
35330;SDS011;21441;52.190;20.910;2022-09-12T12:32:18;7.20;;;3.50;;
35330;SDS011;21441;52.190;20.910;2022-09-12T12:34:49;5.82;;;3.30;;
35330;SDS011;21441;52.190;20.910;2022-09-12T12:40:22;6.28;;;2.97;;
35330;SDS011;21441;52.190;20.910;2022-09-12T12:43:03;6.20;;;3.17;;
35330;SDS011;21441;52.190;20.910;2022-09-12T12:46:00;4.88;;;2.72;;
35330;SDS011;21441;52.190;20.910;2022-09-12T12:48:32;7.30;;;3.45;;
35330;SDS011;21441;52.190;20.910;2022-09-12T12:51:25;5.97;;;3.03;;
35330;SDS011;21441;52.190;20.910;2022-09-12T12:53:56;4.05;;;2.90;;
35330;SDS011;21441;52.190;20.910;2022-09-12T12:56:26;5.18;;;2.78;;
35330;SDS011;21441;52.190;20.910;2022-09-12T12:59:00;4.78;;;3.13;;
35330;SDS011;21441;52.190;20.910;2022-09-12T13:01:30;3.67;;;2.83;;
35330;SDS011;21441;52.190;20.910;2022-09-12T13:04:09;5.90;;;3.35;;
35330;SDS011;21441;52.190;20.910;2022-09-12T13:06:40;7.72;;;3.30;;
35330;SDS011;21441;52.190;20.910;2022-09-12T13:09:18;5.00;;;3.33;;
35330;SDS011;21441;52.190;20.910;2022-09-12T13:11:55;3.45;;;3.15;;
35330;SDS011;21441;52.190;20.910;2022-09-12T13:14:36;5.45;;;3.00;;
35330;SDS011;21441;52.190;20.910;2022-09-12T13:17:16;6.88;;;3.33;;
35330;SDS011;21441;52.190;20.910;2022-09-12T13:19:48;7.18;;;3.00;;
35330;SDS011;21441;52.190;20.910;2022-09-12T13:22:17;3.53;;;2.67;;
35330;SDS011;21441;52.190;20.910;2022-09-12T13:24:48;4.72;;;3.28;;
35330;SDS011;21441;52.190;20.910;2022-09-12T13:27:19;4.70;;;3.10;;
35330;SDS011;21441;52.190;20.910;2022-09-12T13:29:48;5.38;;;3.88;;
35330;SDS011;21441;52.190;20.910;2022-09-12T13:32:15;3.10;;;2.80;;
35330;SDS011;21441;52.190;20.910;2022-09-12T13:34:51;3.97;;;2.97;;
35330;SDS011;21441;52.190;20.910;2022-09-12T13:37:33;4.45;;;3.28;;
35330;SDS011;21441;52.190;20.910;2022-09-12T13:40:15;9.57;;;3.25;;
35330;SDS011;21441;52.190;20.910;2022-09-12T13:43:03;4.93;;;2.78;;
35330;SDS011;21441;52.190;20.910;2022-09-12T13:45:35;5.07;;;2.72;;
35330;SDS011;21441;52.190;20.910;2022-09-12T13:48:05;4.15;;;2.75;;
35330;SDS011;21441;52.190;20.910;2022-09-12T13:50:38;5.53;;;3.50;;
35330;SDS011;21441;52.190;20.910;2022-09-12T13:53:11;5.10;;;3.50;;
35330;SDS011;21441;52.190;20.910;2022-09-12T13:55:41;9.23;;;3.35;;
35330;SDS011;21441;52.190;20.910;2022-09-12T13:58:18;5.22;;;3.17;;
35330;SDS011;21441;52.190;20.910;2022-09-12T14:00:58;4.82;;;3.05;;
35330;SDS011;21441;52.190;20.910;2022-09-12T14:03:27;3.17;;;2.88;;
35330;SDS011;21441;52.190;20.910;2022-09-12T14:06:13;4.43;;;2.88;;
35330;SDS011;21441;52.190;20.910;2022-09-12T14:08:44;7.53;;;4.22;;
35330;SDS011;21441;52.190;20.910;2022-09-12T14:11:17;5.10;;;3.58;;
35330;SDS011;21441;52.190;20.910;2022-09-12T14:13:51;5.07;;;3.20;;
35330;SDS011;21441;52.190;20.910;2022-09-12T14:16:18;7.75;;;3.15;;
35330;SDS011;21441;52.190;20.910;2022-09-12T14:18:48;4.35;;;3.03;;
35330;SDS011;21441;52.190;20.910;2022-09-12T14:21:30;3.87;;;2.83;;
35330;SDS011;21441;52.190;20.910;2022-09-12T14:24:01;4.05;;;3.00;;
35330;SDS011;21441;52.190;20.910;2022-09-12T14:26:32;4.47;;;3.33;;
35330;SDS011;21441;52.190;20.910;2022-09-12T14:29:02;5.63;;;2.95;;
35330;SDS011;21441;52.190;20.910;2022-09-12T14:31:31;3.85;;;2.90;;
35330;SDS011;21441;52.190;20.910;2022-09-12T14:34:10;5.53;;;2.97;;
35330;SDS011;21441;52.190;20.910;2022-09-12T14:36:42;7.35;;;2.83;;
35330;SDS011;21441;52.190;20.910;2022-09-12T14:39:16;3.60;;;3.05;;
35330;SDS011;21441;52.190;20.910;2022-09-12T14:41:47;4.90;;;2.70;;
35330;SDS011;21441;52.190;20.910;2022-09-12T14:44:17;4.53;;;2.85;;
35330;SDS011;21441;52.190;20.910;2022-09-12T14:46:48;6.03;;;2.80;;
35330;SDS011;21441;52.190;20.910;2022-09-12T14:49:17;3.15;;;2.80;;
35330;SDS011;21441;52.190;20.910;2022-09-12T14:51:53;4.50;;;3.38;;
35330;SDS011;21441;52.190;20.910;2022-09-12T14:54:33;4.35;;;2.47;;
35330;SDS011;21441;52.190;20.910;2022-09-12T14:57:02;8.40;;;2.85;;
35330;SDS011;21441;52.190;20.910;2022-09-12T14:59:37;6.60;;;3.33;;
35330;SDS011;21441;52.190;20.910;2022-09-12T15:02:21;3.85;;;2.80;;
35330;SDS011;21441;52.190;20.910;2022-09-12T15:04:51;4.75;;;2.65;;
35330;SDS011;21441;52.190;20.910;2022-09-12T15:07:29;7.43;;;3.42;;
35330;SDS011;21441;52.190;20.910;2022-09-12T15:10:00;3.97;;;2.55;;
35330;SDS011;21441;52.190;20.910;2022-09-12T15:12:28;4.03;;;2.85;;
35330;SDS011;21441;52.190;20.910;2022-09-12T15:14:57;4.45;;;2.72;;
35330;SDS011;21441;52.190;20.910;2022-09-12T15:17:28;3.13;;;2.42;;
35330;SDS011;21441;52.190;20.910;2022-09-12T15:19:55;3.80;;;2.40;;
35330;SDS011;21441;52.190;20.910;2022-09-12T15:22:22;6.75;;;3.08;;
35330;SDS011;21441;52.190;20.910;2022-09-12T15:24:50;4.15;;;2.85;;
35330;SDS011;21441;52.190;20.910;2022-09-12T15:27:18;5.05;;;2.65;;
35330;SDS011;21441;52.190;20.910;2022-09-12T15:29:44;6.38;;;2.67;;